Private Wetterstation Wechselburg
Wetterdaten: Woche 13.06.22 - 19.06.22 (KW24)
Datum Zeit Temp. +2m Bodentemp. Temp.+5cm Temp. Wind Windchill X Diff Temp. Feuchte +2m Feuchte +5cm Luftdruck Regen Wind Richtung Sonnenschein Taupunkt Windchill Windben
13.06.2022 00:00 16,2 C 18,5 C 15,1 C 15,9 C 15,3 C 0,0 C 73 % 76 % 1019,1 hPa 0,0 l/m 0,5 km/h (0 Bft) NO 0,00 h 11,3 C 15,3 C 0,2 km/h (0 Bft)
13.06.2022 01:00 14,8 C 18,4 C 13,6 C 14,3 C 13,3 C 0,0 C 75 % 78 % 1019,0 hPa 0,0 l/m 0,0 km/h (0 Bft) N 0,00 h 10,5 C 13,3 C 0,0 km/h (0 Bft)
13.06.2022 02:00 13,3 C 18,4 C 12,2 C 12,7 C 11,6 C 0,0 C 79 % 81 % 1018,6 hPa 0,0 l/m 0,0 km/h (0 Bft) N 0,00 h 9,7 C 11,6 C 0,0 km/h (0 Bft)
13.06.2022 03:00 12,3 C 18,3 C 11,5 C 11,8 C 10,9 C 0,0 C 82 % 83 % 1018,2 hPa 0,0 l/m 0,0 km/h (0 Bft) N 0,00 h 9,3 C 10,9 C 0,0 km/h (0 Bft)
13.06.2022 04:00 12,2 C 18,1 C 12,0 C 12,0 C 11,8 C 0,0 C 84 % 83 % 1018,3 hPa 0,0 l/m 0,0 km/h (0 Bft) N 0,00 h 9,6 C 11,8 C 0,0 km/h (0 Bft)
13.06.2022 05:00 12,5 C 17,8 C 12,4 C 12,5 C 12,4 C 0,0 C 84 % 82 % 1019,0 hPa 0,0 l/m 0,0 km/h (0 Bft) N 0,00 h 9,8 C 12,4 C 0,0 km/h (0 Bft)
13.06.2022 06:00 13,3 C 17,6 C 13,6 C 14,3 C 14,3 C 1,0 C 82 % 80 % 1019,8 hPa 0,0 l/m 0,1 km/h (0 Bft) N 0,00 h 10,4 C 14,3 C 0,2 km/h (0 Bft)
13.06.2022 07:00 16,2 C 17,4 C 15,6 C 23,2 C 23,2 C 6,9 C 77 % 76 % 1020,1 hPa 0,0 l/m 0,2 km/h (0 Bft) N 0,83 h 12,2 C 23,2 C 1,5 km/h (1 Bft)
13.06.2022 08:00 17,4 C 17,4 C 16,9 C 21,1 C 21,1 C 3,7 C 71 % 72 % 1020,1 hPa 0,0 l/m 1,0 km/h (0 Bft) O-SO 0,58 h 12,1 C 21,1 C 2,5 km/h (1 Bft)
13.06.2022 09:00 17,3 C 17,3 C 17,2 C 20,1 C 20,1 C 2,8 C 69 % 69 % 1020,0 hPa 0,0 l/m 1,7 km/h (1 Bft) W-SW 0,50 h 11,7 C 20,1 C 2,0 km/h (1 Bft)
13.06.2022 10:00 17,9 C 17,2 C 18,1 C 21,6 C 21,6 C 3,7 C 67 % 66 % 1019,9 hPa 0,0 l/m 2,2 km/h (1 Bft) NW 0,75 h 11,7 C 21,6 C 4,0 km/h (1 Bft)
13.06.2022 11:00 19,2 C 17,1 C 19,6 C 24,4 C 24,4 C 5,3 C 63 % 60 % 1020,2 hPa 0,0 l/m 1,8 km/h (1 Bft) W 1,00 h 11,9 C 24,4 C 3,3 km/h (1 Bft)
13.06.2022 12:00 19,5 C 17,1 C 19,4 C 23,9 C 23,9 C 4,4 C 59 % 56 % 1020,5 hPa 0,0 l/m 2,5 km/h (1 Bft) W-SW 0,92 h 11,2 C 23,9 C 3,2 km/h (1 Bft)
13.06.2022 13:00 17,0 C 17,1 C 16,5 C 17,4 C 16,6 C 0,7 C 66 % 68 % 1021,0 hPa 0,0 l/m 2,0 km/h (1 Bft) S 0,08 h 10,5 C 16,6 C 3,1 km/h (1 Bft)
13.06.2022 14:00 18,8 C 17,1 C 21,1 C 24,4 C 24,4 C 5,6 C 64 % 59 % 1021,3 hPa 0,0 l/m 2,3 km/h (1 Bft) W-SW 1,00 h 11,9 C 24,4 C 3,4 km/h (1 Bft)
13.06.2022 15:00 19,7 C 17,1 C 21,5 C 26,5 C 26,5 C 6,7 C 55 % 49 % 1021,3 hPa 0,0 l/m 2,2 km/h (1 Bft) SW 1,00 h 10,4 C 26,5 C 1,8 km/h (1 Bft)
13.06.2022 16:00 20,3 C 17,1 C 22,5 C 27,1 C 27,1 C 6,8 C 52 % 46 % 1021,3 hPa 0,0 l/m 2,0 km/h (1 Bft) S 1,00 h 10,1 C 27,1 C 2,7 km/h (1 Bft)
13.06.2022 17:00 20,0 C 17,0 C 20,6 C 23,2 C 23,2 C 3,2 C 52 % 47 % 1021,1 hPa 0,0 l/m 3,1 km/h (1 Bft) O 0,33 h 9,7 C 23,2 C 3,9 km/h (1 Bft)
13.06.2022 18:00 19,0 C 17,1 C 19,2 C 20,8 C 20,8 C 1,8 C 53 % 50 % 1021,9 hPa 0,0 l/m 3,6 km/h (1 Bft) SW 0,00 h 9,1 C 20,8 C 4,6 km/h (1 Bft)
13.06.2022 19:00 18,0 C 17,0 C 18,0 C 20,0 C 20,0 C 2,0 C 53 % 51 % 1022,2 hPa 0,0 l/m 2,4 km/h (1 Bft) W-SW 0,33 h 8,3 C 20,0 C 5,2 km/h (1 Bft)
13.06.2022 20:00 16,9 C 16,9 C 16,4 C 18,0 C 18,0 C 1,1 C 55 % 55 % 1022,8 hPa 0,0 l/m 0,8 km/h (0 Bft) NO 0,33 h 7,9 C 18,0 C 1,1 km/h (1 Bft)
13.06.2022 21:00 15,8 C 16,9 C 14,8 C 15,4 C 14,5 C 0,0 C 59 % 62 % 1023,2 hPa 0,0 l/m 0,0 km/h (0 Bft) N 0,00 h 7,9 C 14,5 C 0,0 km/h (0 Bft)
13.06.2022 22:00 13,7 C 16,9 C 12,6 C 13,1 C 11,8 C 0,0 C 67 % 70 % 1023,8 hPa 0,0 l/m 0,0 km/h (0 Bft) N 0,00 h 7,6 C 11,8 C 0,0 km/h (0 Bft)
13.06.2022 23:00 11,9 C 16,9 C 10,9 C 11,3 C 9,9 C 0,0 C 73 % 77 % 1024,2 hPa 0,0 l/m 0,0 km/h (0 Bft) N 0,00 h 7,2 C 9,9 C 0,0 km/h (0 Bft)
14.06.2022 00:00 10,6 C 16,9 C 9,6 C 10,0 C 8,7 C 0,0 C 78 % 80 % 1024,1 hPa 0,0 l/m 0,0 km/h (0 Bft) N 0,00 h 6,8 C 8,7 C 0,0 km/h (0 Bft)
14.06.2022 01:00 9,5 C 16,8 C 8,5 C 8,8 C 7,5 C 0,0 C 80 % 82 % 1024,2 hPa 0,0 l/m 0,0 km/h (0 Bft) N 0,00 h 6,3 C 7,5 C 0,0 km/h (0 Bft)
14.06.2022 02:00 8,5 C 16,7 C 7,7 C 7,9 C 6,9 C 0,0 C 83 % 83 % 1024,5 hPa 0,0 l/m 0,0 km/h (0 Bft) N 0,00 h 5,7 C 6,9 C 0,0 km/h (0 Bft)
14.06.2022 03:00 7,8 C 16,6 C 7,3 C 7,4 C 6,5 C 0,0 C 84 % 84 % 1024,6 hPa 0,0 l/m 0,0 km/h (0 Bft) N 0,00 h 5,2 C 6,5 C 0,0 km/h (0 Bft)
14.06.2022 04:00 7,4 C 16,4 C 6,9 C 7,0 C 6,2 C 0,0 C 86 % 84 % 1024,8 hPa 0,0 l/m 0,0 km/h (0 Bft) N 0,00 h 5,1 C 6,2 C 0,0 km/h (0 Bft)
14.06.2022 05:00 7,2 C 16,3 C 7,0 C 6,9 C 6,4 C 0,0 C 87 % 84 % 1025,2 hPa 0,0 l/m 0,0 km/h (0 Bft) N 0,00 h 5,1 C 6,4 C 0,0 km/h (0 Bft)
14.06.2022 06:00 7,8 C 16,0 C 8,0 C 7,9 C 7,8 C 0,2 C 87 % 84 % 1025,3 hPa 0,0 l/m 0,0 km/h (0 Bft) N 0,00 h 5,8 C 7,8 C 0,0 km/h (0 Bft)
14.06.2022 07:00 10,4 C 15,8 C 11,2 C 18,1 C 18,1 C 7,6 C 88 % 83 % 1025,5 hPa 0,0 l/m 0,0 km/h (0 Bft) N 1,00 h 8,5 C 18,1 C 0,0 km/h (0 Bft)
14.06.2022 08:00 14,2 C 15,6 C 13,2 C 22,3 C 22,3 C 8,0 C 77 % 78 % 1025,9 hPa 0,0 l/m 0,1 km/h (0 Bft) N 1,00 h 10,3 C 22,3 C 0,0 km/h (0 Bft)
14.06.2022 09:00 15,8 C 15,6 C 14,5 C 21,6 C 21,6 C 5,8 C 67 % 71 % 1026,3 hPa 0,0 l/m 0,3 km/h (0 Bft) W 1,00 h 9,7 C 21,6 C 0,8 km/h (0 Bft)
14.06.2022 10:00 16,3 C 15,5 C 16,0 C 22,8 C 22,8 C 6,6 C 63 % 65 % 1025,9 hPa 0,0 l/m 0,6 km/h (0 Bft) SW 1,00 h 9,2 C 22,8 C 1,2 km/h (1 Bft)
14.06.2022 11:00 17,5 C 15,6 C 17,3 C 24,1 C 24,1 C 6,6 C 59 % 59 % 1025,7 hPa 0,0 l/m 0,9 km/h (0 Bft) N-NO 1,00 h 9,3 C 24,1 C 2,4 km/h (1 Bft)
14.06.2022 12:00 18,5 C 15,6 C 18,0 C 23,6 C 23,6 C 5,1 C 54 % 54 % 1025,4 hPa 0,0 l/m 1,4 km/h (1 Bft) S 1,00 h 9,0 C 23,6 C 1,8 km/h (1 Bft)
14.06.2022 13:00 20,7 C 15,6 C 19,4 C 25,8 C 25,8 C 5,1 C 48 % 49 % 1025,2 hPa 0,0 l/m 1,7 km/h (1 Bft) W-SW 1,00 h 9,3 C 25,8 C 3,0 km/h (1 Bft)
14.06.2022 14:00 22,5 C 15,7 C 24,4 C 28,5 C 28,5 C 6,0 C 43 % 40 % 1024,9 hPa 0,0 l/m 0,9 km/h (0 Bft) SW 1,00 h 9,3 C 28,5 C 2,3 km/h (1 Bft)
14.06.2022 15:00 21,6 C 15,9 C 23,5 C 28,5 C 28,5 C 6,9 C 43 % 39 % 1024,4 hPa 0,0 l/m 1,5 km/h (1 Bft) NW 1,00 h 8,5 C 28,5 C 2,6 km/h (1 Bft)
14.06.2022 16:00 21,6 C 16,0 C 23,5 C 29,1 C 29,1 C 7,5 C 44 % 39 % 1023,9 hPa 0,0 l/m 1,3 km/h (1 Bft) S 1,00 h 8,6 C 29,1 C 2,3 km/h (1 Bft)
14.06.2022 17:00 21,5 C 16,1 C 22,3 C 27,4 C 27,4 C 5,9 C 43 % 40 % 1023,4 hPa 0,0 l/m 1,3 km/h (1 Bft) SW 1,00 h 8,4 C 27,4 C 1,8 km/h (1 Bft)
14.06.2022 18:00 21,2 C 16,3 C 21,2 C 24,3 C 24,3 C 3,1 C 44 % 43 % 1023,0 hPa 0,0 l/m 1,0 km/h (0 Bft) SW 0,50 h 8,6 C 24,3 C 1,7 km/h (1 Bft)
14.06.2022 19:00 20,9 C 16,3 C 20,2 C 23,5 C 23,5 C 2,7 C 44 % 44 % 1022,8 hPa 0,0 l/m 1,1 km/h (1 Bft) W-SW 0,50 h 8,2 C 23,5 C 1,5 km/h (1 Bft)
14.06.2022 20:00 19,2 C 16,4 C 18,0 C 20,8 C 20,8 C 1,6 C 50 % 53 % 1022,9 hPa 0,0 l/m 0,0 km/h (0 Bft) N 0,67 h 8,4 C 20,8 C 0,0 km/h (0 Bft)
14.06.2022 21:00 17,0 C 16,5 C 15,5 C 16,4 C 15,5 C 0,0 C 58 % 63 % 1022,8 hPa 0,0 l/m 0,0 km/h (0 Bft) N 0,00 h 8,6 C 15,5 C 0,0 km/h (0 Bft)
14.06.2022 22:00 14,5 C 16,6 C 13,0 C 13,7 C 12,1 C 0,0 C 68 % 73 % 1022,9 hPa 0,0 l/m 0,0 km/h (0 Bft) N 0,00 h 8,7 C 12,1 C 0,0 km/h (0 Bft)
14.06.2022 23:00 12,5 C 16,6 C 11,4 C 11,9 C 10,6 C 0,0 C 75 % 77 % 1023,0 hPa 0,0 l/m 0,0 km/h (0 Bft) N 0,00 h 8,1 C 10,6 C 0,0 km/h (0 Bft)
15.06.2022 00:00 11,0 C 16,6 C 10,1 C 10,4 C 9,2 C 0,0 C 78 % 80 % 1023,1 hPa 0,0 l/m 0,0 km/h (0 Bft) N 0,00 h 7,4 C 9,2 C 0,0 km/h (0 Bft)
15.06.2022 01:00 9,8 C 16,6 C 8,9 C 9,2 C 8,0 C 0,0 C 81 % 82 % 1022,9 hPa 0,0 l/m 0,0 km/h (0 Bft) N 0,00 h 6,7 C 8,0 C 0,0 km/h (0 Bft)
15.06.2022 02:00 8,8 C 16,4 C 8,1 C 8,3 C 7,2 C 0,0 C 83 % 83 % 1022,8 hPa 0,0 l/m 0,0 km/h (0 Bft) N 0,00 h 6,0 C 7,2 C 0,0 km/h (0 Bft)
15.06.2022 03:00 8,1 C 16,4 C 7,4 C 7,6 C 6,7 C 0,0 C 84 % 84 % 1022,7 hPa 0,0 l/m 0,0 km/h (0 Bft) N 0,00 h 5,5 C 6,7 C 0,0 km/h (0 Bft)
15.06.2022 04:00 7,4 C 16,2 C 6,9 C 7,0 C 6,1 C 0,0 C 85 % 84 % 1022,3 hPa 0,0 l/m 0,0 km/h (0 Bft) N 0,00 h 5,0 C 6,1 C 0,0 km/h (0 Bft)
15.06.2022 05:00 7,4 C 16,0 C 7,0 C 7,1 C 6,6 C 0,0 C 86 % 84 % 1022,4 hPa 0,0 l/m 0,0 km/h (0 Bft) N 0,00 h 5,2 C 6,6 C 0,0 km/h (0 Bft)
15.06.2022 06:00 7,8 C 15,8 C 7,8 C 8,1 C 7,9 C 0,3 C 87 % 84 % 1022,2 hPa 0,0 l/m 0,0 km/h (0 Bft) N 0,00 h 5,8 C 7,9 C 0,0 km/h (0 Bft)
15.06.2022 07:00 11,2 C 15,6 C 11,3 C 21,7 C 21,7 C 10,5 C 87 % 83 % 1021,9 hPa 0,0 l/m 0,0 km/h (0 Bft) N 0,83 h 9,1 C 21,7 C 0,0 km/h (0 Bft)
15.06.2022 08:00 17,8 C 15,5 C 13,8 C 31,2 C 31,2 C 13,4 C 71 % 79 % 1022,2 hPa 0,0 l/m 0,1 km/h (0 Bft) N 1,00 h 12,5 C 31,2 C 0,4 km/h (0 Bft)
15.06.2022 09:00 21,0 C 15,5 C 16,1 C 31,4 C 31,4 C 10,3 C 57 % 73 % 1022,2 hPa 0,0 l/m 0,3 km/h (0 Bft) N 1,00 h 12,2 C 31,4 C 0,6 km/h (0 Bft)
15.06.2022 10:00 22,1 C 15,6 C 18,6 C 31,1 C 31,1 C 9,0 C 51 % 61 % 1021,8 hPa 0,0 l/m 0,8 km/h (0 Bft) NO 1,00 h 11,4 C 31,1 C 2,0 km/h (1 Bft)
15.06.2022 11:00 23,4 C 15,8 C 21,3 C 30,3 C 30,3 C 6,9 C 46 % 50 % 1021,5 hPa 0,0 l/m 2,8 km/h (1 Bft) NO 1,00 h 11,2 C 30,3 C 4,9 km/h (1 Bft)
15.06.2022 12:00 25,5 C 16,0 C 22,9 C 32,1 C 32,1 C 6,6 C 43 % 46 % 1021,3 hPa 0,0 l/m 2,0 km/h (1 Bft) NO 1,00 h 11,9 C 32,1 C 2,6 km/h (1 Bft)
15.06.2022 13:00 28,7 C 16,2 C 24,7 C 33,6 C 33,6 C 4,9 C 35 % 40 % 1021,0 hPa 0,0 l/m 1,4 km/h (1 Bft) W 1,00 h 11,8 C 33,6 C 2,8 km/h (1 Bft)
15.06.2022 14:00 29,3 C 16,5 C 29,7 C 34,6 C 34,6 C 5,3 C 34 % 32 % 1020,7 hPa 0,0 l/m 1,4 km/h (1 Bft) N-NO 1,00 h 11,6 C 34,6 C 2,1 km/h (1 Bft)
15.06.2022 15:00 28,4 C 16,6 C 29,4 C 34,2 C 34,2 C 5,8 C 35 % 32 % 1020,5 hPa 0,0 l/m 1,8 km/h (1 Bft) W-SW 1,00 h 11,4 C 34,2 C 2,7 km/h (1 Bft)
15.06.2022 16:00 27,9 C 16,9 C 29,3 C 35,0 C 35,0 C 7,1 C 37 % 33 % 1020,0 hPa 0,0 l/m 1,9 km/h (1 Bft) O-NO 1,00 h 11,7 C 35,0 C 3,0 km/h (1 Bft)
15.06.2022 17:00 27,8 C 17,1 C 27,9 C 33,4 C 33,4 C 5,6 C 37 % 35 % 1019,6 hPa 0,0 l/m 2,0 km/h (1 Bft) NO 1,00 h 11,9 C 33,4 C 2,7 km/h (1 Bft)
15.06.2022 18:00 27,8 C 17,4 C 27,3 C 30,6 C 30,6 C 2,8 C 37 % 36 % 1019,2 hPa 0,0 l/m 1,7 km/h (1 Bft) NO 0,50 h 11,8 C 30,6 C 2,5 km/h (1 Bft)
15.06.2022 19:00 26,5 C 17,5 C 25,7 C 28,5 C 28,5 C 2,0 C 42 % 41 % 1018,9 hPa 0,0 l/m 1,6 km/h (1 Bft) NO 0,25 h 12,4 C 28,5 C 1,9 km/h (1 Bft)
15.06.2022 20:00 24,6 C 17,8 C 23,2 C 25,5 C 25,5 C 0,8 C 48 % 50 % 1018,9 hPa 0,0 l/m 0,7 km/h (0 Bft) NO 0,17 h 12,9 C 25,5 C 0,8 km/h (0 Bft)
15.06.2022 21:00 22,0 C 17,9 C 20,1 C 21,5 C 20,5 C 0,0 C 57 % 61 % 1019,1 hPa 0,0 l/m 0,1 km/h (0 Bft) N 0,00 h 13,0 C 20,5 C 0,0 km/h (0 Bft)
15.06.2022 22:00 19,2 C 18,0 C 17,6 C 18,5 C 17,3 C 0,0 C 67 % 71 % 1019,4 hPa 0,0 l/m 0,0 km/h (0 Bft) N 0,00 h 12,8 C 17,3 C 0,0 km/h (0 Bft)
15.06.2022 23:00 17,2 C 18,0 C 15,7 C 16,6 C 15,4 C 0,0 C 73 % 76 % 1019,2 hPa 0,0 l/m 0,0 km/h (0 Bft) N 0,00 h 12,2 C 15,4 C 0,0 km/h (0 Bft)
16.06.2022 00:00 15,5 C 18,0 C 14,3 C 15,0 C 13,9 C 0,0 C 77 % 79 % 1018,8 hPa 0,0 l/m 0,0 km/h (0 Bft) N 0,00 h 11,5 C 13,9 C 0,0 km/h (0 Bft)
16.06.2022 01:00 14,3 C 18,0 C 13,4 C 13,8 C 12,8 C 0,0 C 80 % 82 % 1018,3 hPa 0,0 l/m 0,0 km/h (0 Bft) N 0,00 h 11,0 C 12,8 C 0,0 km/h (0 Bft)
16.06.2022 02:00 13,3 C 17,9 C 12,4 C 12,8 C 11,7 C 0,0 C 82 % 83 % 1018,1 hPa 0,0 l/m 0,0 km/h (0 Bft) N 0,00 h 10,3 C 11,7 C 0,0 km/h (0 Bft)
16.06.2022 03:00 12,5 C 18,0 C 11,7 C 12,0 C 11,1 C 0,0 C 84 % 83 % 1018,0 hPa 0,0 l/m 0,0 km/h (0 Bft) N 0,00 h 9,8 C 11,1 C 0,0 km/h (0 Bft)
16.06.2022 04:00 12,0 C 17,9 C 11,4 C 11,6 C 11,0 C 0,0 C 85 % 84 % 1017,8 hPa 0,0 l/m 0,0 km/h (0 Bft) N 0,00 h 9,5 C 11,0 C 0,0 km/h (0 Bft)
16.06.2022 05:00 11,8 C 17,7 C 11,4 C 11,6 C 11,0 C 0,0 C 87 % 83 % 1018,0 hPa 0,0 l/m 0,0 km/h (0 Bft) N 0,00 h 9,6 C 11,0 C 0,0 km/h (0 Bft)
16.06.2022 06:00 12,3 C 17,5 C 12,6 C 12,9 C 12,9 C 0,6 C 88 % 83 % 1017,9 hPa 0,0 l/m 0,0 km/h (0 Bft) N 0,00 h 10,3 C 12,9 C 0,0 km/h (0 Bft)
16.06.2022 07:00 14,3 C 17,2 C 15,2 C 17,9 C 17,9 C 3,6 C 87 % 82 % 1018,3 hPa 0,0 l/m 0,1 km/h (0 Bft) N 0,42 h 12,2 C 17,9 C 0,7 km/h (0 Bft)
16.06.2022 08:00 16,9 C 17,0 C 17,1 C 19,9 C 19,9 C 3,1 C 79 % 76 % 1019,0 hPa 0,0 l/m 0,1 km/h (0 Bft) N 0,25 h 13,2 C 19,9 C 0,0 km/h (0 Bft)
16.06.2022 09:00 18,9 C 17,0 C 18,7 C 23,9 C 23,9 C 5,0 C 69 % 69 % 1019,4 hPa 0,0 l/m 0,3 km/h (0 Bft) N 1,00 h 13,1 C 23,9 C 1,1 km/h (0 Bft)
16.06.2022 10:00 19,6 C 17,0 C 19,8 C 25,0 C 25,0 C 5,3 C 66 % 64 % 1020,0 hPa 0,0 l/m 0,9 km/h (0 Bft) S-SW 1,00 h 13,0 C 25,0 C 2,4 km/h (1 Bft)
16.06.2022 11:00 21,5 C 17,0 C 21,5 C 28,5 C 28,5 C 7,0 C 60 % 58 % 1020,4 hPa 0,0 l/m 0,9 km/h (0 Bft) SO 1,00 h 13,4 C 28,5 C 1,5 km/h (1 Bft)
16.06.2022 12:00 23,6 C 17,0 C 23,0 C 30,1 C 30,1 C 6,5 C 56 % 54 % 1020,8 hPa 0,0 l/m 1,6 km/h (1 Bft) SW 1,00 h 14,1 C 30,1 C 4,2 km/h (1 Bft)
16.06.2022 13:00 23,5 C 17,1 C 22,8 C 27,3 C 27,3 C 3,8 C 55 % 54 % 1020,9 hPa 0,0 l/m 1,7 km/h (1 Bft) W-SW 0,50 h 13,8 C 27,3 C 3,4 km/h (1 Bft)
16.06.2022 14:00 25,6 C 17,2 C 27,0 C 31,0 C 31,0 C 5,4 C 51 % 46 % 1020,9 hPa 0,0 l/m 1,8 km/h (1 Bft) SW 1,00 h 14,6 C 31,0 C 2,2 km/h (1 Bft)
16.06.2022 15:00 25,7 C 17,4 C 27,0 C 32,3 C 32,3 C 6,6 C 48 % 43 % 1020,8 hPa 0,0 l/m 1,6 km/h (1 Bft) S 1,00 h 13,9 C 32,3 C 2,1 km/h (1 Bft)
16.06.2022 16:00 25,9 C 17,5 C 26,9 C 31,5 C 31,5 C 5,7 C 45 % 40 % 1020,7 hPa 0,0 l/m 2,4 km/h (1 Bft) S 1,00 h 12,9 C 31,5 C 4,8 km/h (1 Bft)
16.06.2022 17:00 26,0 C 17,7 C 26,5 C 30,9 C 30,9 C 4,9 C 41 % 37 % 1021,1 hPa 0,0 l/m 2,8 km/h (1 Bft) SW 0,92 h 11,8 C 30,9 C 4,2 km/h (1 Bft)
16.06.2022 18:00 25,6 C 17,8 C 25,3 C 28,0 C 28,0 C 2,4 C 39 % 37 % 1021,0 hPa 0,0 l/m 3,2 km/h (1 Bft) S 0,25 h 10,6 C 28,0 C 6,0 km/h (2 Bft)
16.06.2022 19:00 24,8 C 17,8 C 24,2 C 27,1 C 27,1 C 2,3 C 40 % 38 % 1021,3 hPa 0,0 l/m 2,5 km/h (1 Bft) S 0,25 h 10,2 C 27,1 C 5,0 km/h (1 Bft)
16.06.2022 20:00 23,3 C 17,9 C 22,5 C 25,2 C 25,2 C 1,9 C 42 % 42 % 1022,1 hPa 0,0 l/m 3,0 km/h (1 Bft) W 0,75 h 9,8 C 25,2 C 3,8 km/h (1 Bft)
16.06.2022 21:00 21,3 C 17,9 C 20,4 C 20,9 C 20,1 C 0,0 C 48 % 48 % 1022,8 hPa 0,0 l/m 2,3 km/h (1 Bft) W 0,00 h 9,7 C 20,1 C 3,2 km/h (1 Bft)
16.06.2022 22:00 19,3 C 18,0 C 18,0 C 18,8 C 17,6 C 0,0 C 53 % 55 % 1023,5 hPa 0,0 l/m 0,3 km/h (0 Bft) N 0,00 h 9,5 C 17,6 C 1,1 km/h (1 Bft)
16.06.2022 23:00 16,9 C 17,9 C 15,7 C 16,5 C 15,6 C 0,0 C 61 % 65 % 1024,1 hPa 0,0 l/m 0,1 km/h (0 Bft) N 0,00 h 9,4 C 15,6 C 0,0 km/h (0 Bft)
17.06.2022 00:00 15,3 C 17,9 C 14,2 C 14,7 C 13,6 C 0,0 C 68 % 71 % 1024,7 hPa 0,0 l/m 0,0 km/h (0 Bft) N 0,00 h 9,4 C 13,6 C 0,0 km/h (0 Bft)
17.06.2022 01:00 13,9 C 17,8 C 13,0 C 13,5 C 12,7 C 0,0 C 73 % 75 % 1025,1 hPa 0,0 l/m 0,0 km/h (0 Bft) N 0,00 h 9,2 C 12,7 C 0,0 km/h (0 Bft)
17.06.2022 02:00 13,0 C 17,8 C 12,0 C 12,5 C 11,5 C 0,0 C 76 % 78 % 1025,2 hPa 0,0 l/m 0,0 km/h (0 Bft) N 0,00 h 8,8 C 11,5 C 0,0 km/h (0 Bft)
17.06.2022 03:00 11,7 C 17,8 C 10,7 C 11,1 C 9,8 C 0,0 C 79 % 81 % 1025,2 hPa 0,0 l/m 0,0 km/h (0 Bft) N 0,00 h 8,2 C 9,8 C 0,0 km/h (0 Bft)
17.06.2022 04:00 10,5 C 17,7 C 9,6 C 9,9 C 8,7 C 0,0 C 82 % 82 % 1025,8 hPa 0,0 l/m 0,0 km/h (0 Bft) N 0,00 h 7,5 C 8,7 C 0,0 km/h (0 Bft)
17.06.2022 05:00 9,6 C 17,6 C 9,0 C 9,2 C 8,3 C 0,0 C 83 % 83 % 1025,9 hPa 0,0 l/m 0,0 km/h (0 Bft) N 0,00 h 6,9 C 8,3 C 0,0 km/h (0 Bft)
17.06.2022 06:00 9,8 C 17,3 C 9,6 C 9,8 C 9,5 C 0,2 C 86 % 83 % 1026,5 hPa 0,0 l/m 0,0 km/h (0 Bft) N 0,00 h 7,5 C 9,5 C 0,0 km/h (0 Bft)
17.06.2022 07:00 13,1 C 16,9 C 12,6 C 23,8 C 23,8 C 10,6 C 86 % 82 % 1026,5 hPa 0,0 l/m 0,0 km/h (0 Bft) N 0,92 h 10,8 C 23,8 C 0,0 km/h (0 Bft)
17.06.2022 08:00 18,4 C 16,9 C 14,7 C 30,7 C 30,7 C 12,4 C 70 % 78 % 1026,9 hPa 0,0 l/m 0,1 km/h (0 Bft) N 1,00 h 12,7 C 30,7 C 0,6 km/h (0 Bft)
17.06.2022 09:00 20,3 C 16,8 C 16,4 C 29,0 C 29,0 C 8,7 C 56 % 69 % 1027,3 hPa 0,0 l/m 0,6 km/h (0 Bft) SO 1,00 h 11,2 C 29,0 C 1,8 km/h (1 Bft)
17.06.2022 10:00 20,2 C 16,8 C 17,8 C 29,2 C 29,2 C 9,1 C 54 % 61 % 1027,7 hPa 0,0 l/m 0,6 km/h (0 Bft) SW 1,00 h 10,7 C 29,2 C 1,8 km/h (1 Bft)
17.06.2022 11:00 21,2 C 16,8 C 19,2 C 30,2 C 30,2 C 9,0 C 52 % 56 % 1027,8 hPa 0,0 l/m 0,7 km/h (0 Bft) SW 1,00 h 10,9 C 30,2 C 1,0 km/h (0 Bft)
17.06.2022 12:00 23,5 C 16,9 C 20,8 C 30,3 C 30,3 C 6,8 C 47 % 51 % 1027,3 hPa 0,0 l/m 1,1 km/h (1 Bft) S 1,00 h 11,4 C 30,3 C 1,4 km/h (1 Bft)
17.06.2022 13:00 26,2 C 16,9 C 22,9 C 31,4 C 31,4 C 5,2 C 40 % 46 % 1026,8 hPa 0,0 l/m 0,9 km/h (0 Bft) S-SO 1,00 h 11,6 C 31,4 C 0,8 km/h (0 Bft)
17.06.2022 14:00 27,0 C 17,1 C 27,8 C 32,2 C 32,2 C 5,3 C 37 % 36 % 1026,5 hPa 0,0 l/m 1,0 km/h (0 Bft) SO 1,00 h 11,1 C 32,2 C 1,3 km/h (1 Bft)
17.06.2022 15:00 26,4 C 17,3 C 27,9 C 33,3 C 33,3 C 6,9 C 38 % 35 % 1025,9 hPa 0,0 l/m 0,7 km/h (0 Bft) W 1,00 h 10,9 C 33,3 C 0,8 km/h (0 Bft)
17.06.2022 16:00 26,3 C 17,5 C 27,9 C 33,5 C 33,5 C 7,2 C 38 % 35 % 1025,6 hPa 0,0 l/m 1,1 km/h (0 Bft) SO 1,00 h 10,8 C 33,5 C 1,7 km/h (1 Bft)
17.06.2022 17:00 26,5 C 17,6 C 26,7 C 32,2 C 32,2 C 5,7 C 36 % 34 % 1025,2 hPa 0,0 l/m 0,7 km/h (0 Bft) S-SW 1,00 h 10,2 C 32,2 C 1,0 km/h (0 Bft)
17.06.2022 18:00 26,7 C 17,7 C 26,0 C 29,2 C 29,2 C 2,6 C 36 % 35 % 1024,8 hPa 0,0 l/m 0,2 km/h (0 Bft) N 0,17 h 10,1 C 29,2 C 0,2 km/h (0 Bft)
17.06.2022 19:00 25,8 C 17,8 C 24,6 C 26,2 C 26,1 C 0,4 C 37 % 39 % 1024,8 hPa 0,0 l/m 0,0 km/h (0 Bft) N 0,00 h 10,1 C 26,1 C 0,0 km/h (0 Bft)
17.06.2022 20:00 24,3 C 18,1 C 22,7 C 24,0 C 23,5 C 0,0 C 46 % 50 % 1024,7 hPa 0,0 l/m 0,0 km/h (0 Bft) N 0,00 h 12,0 C 23,5 C 0,0 km/h (0 Bft)
17.06.2022 21:00 22,3 C 18,2 C 20,8 C 21,9 C 21,1 C 0,0 C 54 % 58 % 1024,7 hPa 0,0 l/m 0,0 km/h (0 Bft) N 0,00 h 12,6 C 21,1 C 0,0 km/h (0 Bft)
17.06.2022 22:00 20,7 C 18,3 C 19,4 C 20,3 C 19,5 C 0,0 C 61 % 65 % 1024,7 hPa 0,0 l/m 0,0 km/h (0 Bft) N 0,00 h 13,0 C 19,5 C 0,0 km/h (0 Bft)
17.06.2022 23:00 19,3 C 18,3 C 18,0 C 18,9 C 17,9 C 0,0 C 67 % 70 % 1024,4 hPa 0,0 l/m 0,0 km/h (0 Bft) N 0,00 h 13,1 C 17,9 C 0,0 km/h (0 Bft)
18.06.2022 00:00 17,6 C 18,3 C 16,2 C 17,0 C 15,7 C 0,0 C 72 % 75 % 1024,1 hPa 0,0 l/m 0,0 km/h (0 Bft) N 0,00 h 12,4 C 15,7 C 0,0 km/h (0 Bft)
18.06.2022 01:00 15,9 C 18,3 C 14,6 C 15,2 C 13,9 C 0,0 C 76 % 79 % 1023,7 hPa 0,0 l/m 0,0 km/h (0 Bft) N 0,00 h 11,7 C 13,9 C 0,0 km/h (0 Bft)
18.06.2022 02:00 14,4 C 18,3 C 13,4 C 13,8 C 12,7 C 0,0 C 79 % 81 % 1023,4 hPa 0,0 l/m 0,0 km/h (0 Bft) N 0,00 h 10,9 C 12,7 C 0,0 km/h (0 Bft)
18.06.2022 03:00 13,5 C 18,2 C 12,6 C 13,0 C 12,2 C 0,0 C 82 % 82 % 1023,1 hPa 0,0 l/m 0,0 km/h (0 Bft) N 0,00 h 10,4 C 12,2 C 0,0 km/h (0 Bft)
18.06.2022 04:00 12,7 C 18,2 C 12,0 C 12,2 C 11,3 C 0,0 C 83 % 83 % 1022,5 hPa 0,0 l/m 0,0 km/h (0 Bft) N 0,00 h 9,9 C 11,3 C 0,0 km/h (0 Bft)
18.06.2022 05:00 12,2 C 18,1 C 11,5 C 11,9 C 11,1 C 0,0 C 84 % 83 % 1022,3 hPa 0,0 l/m 0,0 km/h (0 Bft) N 0,00 h 9,7 C 11,1 C 0,0 km/h (0 Bft)
18.06.2022 06:00 12,6 C 17,9 C 12,5 C 13,2 C 13,1 C 0,6 C 86 % 83 % 1022,2 hPa 0,0 l/m 0,0 km/h (0 Bft) N 0,00 h 10,4 C 13,1 C 0,0 km/h (0 Bft)
18.06.2022 07:00 16,8 C 17,6 C 16,0 C 26,3 C 26,3 C 9,6 C 83 % 80 % 1021,7 hPa 0,0 l/m 0,1 km/h (0 Bft) SW 0,83 h 13,7 C 26,3 C 0,2 km/h (0 Bft)
18.06.2022 08:00 23,6 C 17,5 C 20,4 C 32,0 C 32,0 C 8,4 C 53 % 60 % 1021,7 hPa 0,0 l/m 2,9 km/h (1 Bft) S-SO 1,00 h 13,3 C 32,0 C 5,4 km/h (1 Bft)
18.06.2022 09:00 26,3 C 17,5 C 23,2 C 33,0 C 33,0 C 6,7 C 44 % 49 % 1021,2 hPa 0,0 l/m 2,4 km/h (1 Bft) S 0,92 h 13,0 C 33,0 C 4,7 km/h (1 Bft)
18.06.2022 10:00 27,7 C 17,6 C 25,3 C 34,6 C 34,6 C 7,0 C 41 % 44 % 1020,8 hPa 0,0 l/m 2,2 km/h (1 Bft) S-SO 1,00 h 13,1 C 34,6 C 4,9 km/h (1 Bft)
18.06.2022 11:00 29,7 C 17,8 C 27,4 C 36,6 C 36,6 C 6,9 C 38 % 40 % 1020,4 hPa 0,0 l/m 1,6 km/h (1 Bft) SO 1,05 h 13,7 C 36,6 C 3,9 km/h (1 Bft)
18.06.2022 12:00 31,9 C 18,0 C 29,3 C 37,7 C 37,7 C 5,8 C 35 % 36 % 1019,9 hPa 0,0 l/m 1,7 km/h (1 Bft) W-SW 0,95 h 14,4 C 37,7 C 2,2 km/h (1 Bft)
18.06.2022 13:00 34,1 C 18,3 C 31,2 C 38,6 C 38,6 C 4,5 C 32 % 33 % 1019,3 hPa 0,0 l/m 1,7 km/h (1 Bft) W-SW 1,00 h 14,8 C 38,6 C 3,3 km/h (1 Bft)
18.06.2022 14:00 35,4 C 18,6 C 35,8 C 39,8 C 39,8 C 4,4 C 30 % 27 % 1018,7 hPa 0,0 l/m 1,4 km/h (1 Bft) S-SW 1,00 h 15,1 C 39,8 C 2,6 km/h (1 Bft)
18.06.2022 15:00 35,0 C 18,9 C 35,5 C 40,2 C 40,2 C 5,2 C 30 % 26 % 1018,1 hPa 0,0 l/m 1,9 km/h (1 Bft) S-SO 1,00 h 14,9 C 40,2 C 2,6 km/h (1 Bft)
18.06.2022 16:00 34,4 C 19,3 C 35,5 C 40,0 C 40,0 C 5,6 C 31 % 27 % 1017,5 hPa 0,0 l/m 1,9 km/h (1 Bft) O-SO 1,00 h 14,8 C 40,0 C 2,7 km/h (1 Bft)
18.06.2022 17:00 34,2 C 19,6 C 34,2 C 38,6 C 38,6 C 4,5 C 31 % 28 % 1017,2 hPa 0,0 l/m 1,6 km/h (1 Bft) SW 0,92 h 14,7 C 38,6 C 2,4 km/h (1 Bft)
18.06.2022 18:00 34,0 C 19,9 C 33,1 C 36,4 C 36,4 C 2,4 C 33 % 32 % 1016,8 hPa 0,0 l/m 0,6 km/h (0 Bft) N 0,00 h 15,4 C 36,4 C 1,6 km/h (1 Bft)
18.06.2022 19:00 33,4 C 20,1 C 31,7 C 35,0 C 35,0 C 1,7 C 36 % 36 % 1016,6 hPa 0,0 l/m 0,2 km/h (0 Bft) N 0,00 h 16,1 C 35,0 C 0,0 km/h (0 Bft)
18.06.2022 20:00 31,4 C 20,2 C 28,9 C 31,8 C 31,7 C 0,4 C 42 % 46 % 1016,5 hPa 0,0 l/m 0,0 km/h (0 Bft) N 0,00 h 16,9 C 31,7 C 0,0 km/h (0 Bft)
18.06.2022 21:00 26,0 C 20,5 C 23,7 C 25,2 C 23,7 C 0,0 C 59 % 64 % 1016,3 hPa 0,0 l/m 0,0 km/h (0 Bft) N 0,00 h 17,3 C 23,7 C 0,0 km/h (0 Bft)
18.06.2022 22:00 24,0 C 20,6 C 22,2 C 23,3 C 21,9 C 0,0 C 66 % 70 % 1016,3 hPa 0,0 l/m 0,0 km/h (0 Bft) N 0,00 h 17,2 C 21,9 C 0,0 km/h (0 Bft)
18.06.2022 23:00 21,9 C 20,6 C 20,6 C 21,3 C 20,1 C 0,0 C 73 % 75 % 1015,9 hPa 0,0 l/m 0,0 km/h (0 Bft) N 0,00 h 16,8 C 20,1 C 0,0 km/h (0 Bft)
19.06.2022 00:00 20,4 C 20,6 C 19,3 C 19,8 C 18,8 C 0,0 C 78 % 78 % 1015,5 hPa 0,0 l/m 0,0 km/h (0 Bft) N 0,00 h 16,3 C 18,8 C 0,0 km/h (0 Bft)
19.06.2022 01:00 19,2 C 20,6 C 18,3 C 18,7 C 17,8 C 0,0 C 80 % 80 % 1015,1 hPa 0,0 l/m 0,0 km/h (0 Bft) N 0,00 h 15,7 C 17,8 C 0,0 km/h (0 Bft)
19.06.2022 02:00 18,3 C 20,6 C 17,6 C 18,0 C 17,3 C 0,0 C 83 % 81 % 1014,7 hPa 0,0 l/m 0,0 km/h (0 Bft) N 0,00 h 15,3 C 17,3 C 0,0 km/h (0 Bft)
19.06.2022 03:00 17,5 C 20,5 C 16,7 C 17,1 C 16,3 C 0,0 C 84 % 82 % 1013,8 hPa 0,0 l/m 0,0 km/h (0 Bft) N 0,00 h 14,7 C 16,3 C 0,0 km/h (0 Bft)
19.06.2022 04:00 16,8 C 20,3 C 16,1 C 16,4 C 15,6 C 0,0 C 85 % 82 % 1012,8 hPa 0,0 l/m 0,0 km/h (0 Bft) N 0,00 h 14,1 C 15,6 C 0,0 km/h (0 Bft)
19.06.2022 05:00 16,3 C 20,2 C 15,9 C 16,1 C 15,7 C 0,0 C 86 % 83 % 1012,4 hPa 0,0 l/m 0,0 km/h (0 Bft) N 0,00 h 14,0 C 15,7 C 0,0 km/h (0 Bft)
19.06.2022 06:00 16,8 C 19,9 C 17,0 C 18,0 C 18,0 C 1,2 C 87 % 82 % 1011,9 hPa 0,0 l/m 0,0 km/h (0 Bft) N 0,00 h 14,6 C 18,0 C 0,0 km/h (0 Bft)
19.06.2022 07:00 19,7 C 19,7 C 19,5 C 26,3 C 26,3 C 6,7 C 84 % 80 % 1011,2 hPa 0,0 l/m 0,0 km/h (0 Bft) N 1,00 h 16,9 C 26,3 C 0,0 km/h (0 Bft)
19.06.2022 08:00 26,1 C 19,6 C 22,6 C 35,7 C 35,7 C 9,6 C 66 % 72 % 1010,7 hPa 0,0 l/m 0,0 km/h (0 Bft) N 1,00 h 19,1 C 35,7 C 0,0 km/h (0 Bft)
19.06.2022 09:00 30,5 C 19,6 C 25,6 C 38,5 C 38,5 C 7,9 C 50 % 62 % 1010,2 hPa 0,0 l/m 1,1 km/h (1 Bft) SO 1,00 h 18,7 C 38,5 C 3,5 km/h (1 Bft)
19.06.2022 10:00 32,8 C 19,7 C 29,6 C 39,0 C 39,0 C 6,1 C 37 % 42 % 1010,2 hPa 0,0 l/m 3,5 km/h (1 Bft) S 1,00 h 16,3 C 39,0 C 6,4 km/h (2 Bft)
19.06.2022 11:00 34,0 C 19,8 C 31,7 C 38,6 C 38,6 C 4,7 C 32 % 33 % 1009,8 hPa 0,0 l/m 6,4 km/h (2 Bft) O-SO 1,00 h 14,7 C 38,6 C 10,5 km/h (2 Bft)
19.06.2022 12:00 35,9 C 20,0 C 33,4 C 39,8 C 39,8 C 3,9 C 29 % 31 % 1009,0 hPa 0,0 l/m 4,7 km/h (1 Bft) S-SO 0,82 h 14,8 C 39,8 C 6,4 km/h (2 Bft)
19.06.2022 13:00 38,1 C 20,3 C 35,1 C 40,7 C 40,7 C 2,6 C 26 % 28 % 1008,6 hPa 0,0 l/m 4,2 km/h (1 Bft) S 0,00 h 15,4 C 40,7 C 5,5 km/h (1 Bft)
19.06.2022 14:00 38,4 C 20,5 C 39,0 C 41,8 C 41,8 C 3,4 C 28 % 26 % 1008,3 hPa 0,0 l/m 3,5 km/h (1 Bft) S-SO 0,48 h 16,5 C 41,8 C 6,0 km/h (2 Bft)
19.06.2022 15:00 37,8 C 20,9 C 38,8 C 42,7 C 42,7 C 5,0 C 30 % 27 % 1007,9 hPa 0,0 l/m 2,6 km/h (1 Bft) W-SW 1,00 h 17,0 C 42,7 C 4,1 km/h (1 Bft)
19.06.2022 16:00 36,7 C 21,3 C 37,3 C 40,9 C 40,9 C 4,2 C 33 % 31 % 1007,8 hPa 0,0 l/m 3,0 km/h (1 Bft) W-SW 0,90 h 17,6 C 40,9 C 3,7 km/h (1 Bft)
19.06.2022 17:00 35,5 C 21,5 C 35,3 C 39,2 C 39,2 C 3,7 C 38 % 37 % 1008,0 hPa 0,0 l/m 4,0 km/h (1 Bft) NW 0,75 h 18,7 C 39,2 C 6,5 km/h (2 Bft)
19.06.2022 18:00 33,7 C 21,6 C 33,2 C 35,5 C 35,5 C 1,7 C 42 % 42 % 1008,2 hPa 0,0 l/m 2,5 km/h (1 Bft) W 0,00 h 18,9 C 35,5 C 3,1 km/h (1 Bft)
19.06.2022 19:00 31,2 C 21,6 C 30,4 C 31,5 C 31,2 C 0,5 C 45 % 45 % 1009,0 hPa 0,0 l/m 3,4 km/h (1 Bft) S 0,00 h 17,7 C 31,2 C 4,8 km/h (1 Bft)
19.06.2022 20:00 27,7 C 22,0 C 26,5 C 27,1 C 26,0 C 0,0 C 51 % 53 % 1010,5 hPa 0,0 l/m 2,5 km/h (1 Bft) SW 0,00 h 16,5 C 26,0 C 3,6 km/h (1 Bft)
19.06.2022 21:00 23,5 C 22,1 C 21,6 C 22,3 C 20,0 C 0,0 C 67 % 76 % 1011,3 hPa 0,0 l/m 0,2 km/h (0 Bft) N 0,00 h 17,0 C 20,0 C 0,4 km/h (0 Bft)
19.06.2022 22:00 21,4 C 22,1 C 20,1 C 21,1 C 20,3 C 0,0 C 74 % 79 % 1012,1 hPa 0,0 l/m 0,0 km/h (0 Bft) N 0,00 h 16,5 C 20,3 C 0,0 km/h (0 Bft)
19.06.2022 23:00 20,3 C 21,9 C 19,3 C 20,0 C 19,4 C 0,0 C 77 % 80 % 1012,1 hPa 0,0 l/m 0,0 km/h (0 Bft) N 0,00 h 16,0 C 19,4 C 0,0 km/h (0 Bft)
Min-Datum _ 14.06.22 15.06.22 14.06.22 14.06.22 14.06.22 13.06.22 19.06.22 18.06.22 19.06.22 - 13.06.22 - - 15.06.22 14.06.22 13.06.22
_ Min-Zeit 04:40 08:10 04:40 04:40 04:45 00:00 13:15 14:55 16:05 - 00:15 - - 04:40 04:45 00:00
Minimum _ 7,2 C 15,4 C 6,7 C 6,8 C 5,9 C 0,0 C 26 % 24 % 1007,6 hPa - 0,0 km/h (0 Bft) - - 4,9 C 5,9 C 0,0 km/h (0 Bft)
Max-Datum _ 19.06.22 19.06.22 19.06.22 19.06.22 19.06.22 15.06.22 14.06.22 14.06.22 17.06.22 13.06.22 19.06.22 - 18.06.22 19.06.22 19.06.22 19.06.22
_ Max-Zeit 13:55 22:05 14:41 15:40 15:40 08:30 06:35 05:30 10:25 00:00 11:30 - 14:31 09:15 15:40 11:35
Maximum _ 38,6 C 22,2 C 40,2 C 43,3 C 43,3 C 13,8 C 88 % 85 % 1027,9 hPa 0,0 l/m 7,9 km/h
O-SO (2 Bft)
- 0,33 h 20,0 C 43,3 C 27,7 km/h
O-SO (4 Bft)
Durchschnitt _ 20,3 C 17,8 C 19,5 C 23,1 C 22,7 C 3,1 C 61 % 61 % 1020,4 hPa #0,0 l/m 0,9 km/h (0 Bft) W-SW #74:07 h 11,5 C 22,7 C 1,5 km/h (1 Bft)
2022 www.wetterstation-wechselburg.de